Time;durP1;ratioP1;P1;durP2;ratioP2;P2;SDS_P1;SDS_P2;PMS_P1;PMS_P2;Temp;Humidity;BMP_temperature;BMP_pressure;BME280_temperature;BME280_humidity;BME280_pressure;Samples;Min_cycle;Max_cycle;Signal;HPM_P1;HPM_P2
2023/04/12 00:02:11;;;;;;;0.10;0.10;;;;;;;5.09;75.82;98439.03;7353601;19;20012;-68
2023/04/12 00:04:37;;;;;;;0.10;0.10;;;;;;;5.08;76.02;98419.25;7352195;19;20017;-68
2023/04/12 00:07:02;;;;;;;0.10;0.10;;;;;;;5.02;75.90;98411.69;7352139;19;20359;-68
2023/04/12 00:09:29;;;;;;;0.10;0.10;;;;;;;4.63;75.79;98350.22;7351523;19;20021;-68
2023/04/12 00:11:57;;;;;;;0.10;0.10;;;;;;;4.92;76.00;98398.28;7347777;19;20014;-68
2023/04/12 00:14:26;;;;;;;0.00;0.00;;;;;;;4.05;76.02;98254.09;7350148;19;20014;-67
2023/04/12 00:16:52;;;;;;;0.10;0.10;;;;;;;4.85;75.84;98392.47;7352239;19;20877;-67
2023/04/12 00:19:17;;;;;;;0.00;0.00;;;;;;;5.02;75.87;98424.63;7352375;19;20020;-68
2023/04/12 00:21:43;;;;;;;0.10;0.10;;;;;;;5.02;76.18;98422.03;7354702;19;20022;-68
2023/04/12 00:24:09;;;;;;;0.10;0.10;;;;;;;5.01;76.11;98422.94;7350685;19;20374;-67
2023/04/12 00:26:34;;;;;;;0.00;0.00;;;;;;;4.83;76.15;98389.09;7351380;19;20015;-68
2023/04/12 00:29:00;;;;;;;0.00;0.00;;;;;;;4.98;76.17;98407.56;7352786;19;20086;-68
2023/04/12 00:31:25;;;;;;;0.00;0.00;;;;;;;4.98;76.18;98408.41;7350391;19;20011;-68
2023/04/12 00:33:51;;;;;;;0.10;0.10;;;;;;;4.98;76.00;98404.97;7349728;19;20003;-68
2023/04/12 00:36:16;;;;;;;0.10;0.10;;;;;;;4.98;76.06;98399.78;7350598;19;20013;-68
2023/04/12 00:38:42;;;;;;;0.10;0.10;;;;;;;4.83;76.19;98373.59;7350532;19;20018;-67
2023/04/12 00:41:07;;;;;;;0.00;0.00;;;;;;;4.98;76.11;98397.22;7349190;19;20017;-67
2023/04/12 00:43:33;;;;;;;0.10;0.10;;;;;;;4.96;76.56;98399.84;7347861;19;20671;-68
2023/04/12 00:45:59;;;;;;;0.00;0.00;;;;;;;4.97;76.44;98403.25;7350845;19;20010;-67
2023/04/12 00:48:26;;;;;;;0.00;0.00;;;;;;;4.98;76.38;98386.88;7351409;19;20018;-67
2023/04/12 00:50:54;;;;;;;0.00;0.00;;;;;;;4.98;76.45;98402.38;7349574;19;20251;-68
2023/04/12 00:53:21;;;;;;;0.08;0.08;;;;;;;5.00;76.54;98396.25;7351489;19;20025;-68
2023/04/12 00:55:48;;;;;;;0.00;0.00;;;;;;;4.89;76.67;98398.38;7351579;19;20023;-67
2023/04/12 00:58:15;;;;;;;0.05;0.05;;;;;;;5.04;76.86;98396.97;7349068;19;20007;-68
2023/04/12 01:00:41;;;;;;;0.00;0.00;;;;;;;5.04;76.69;98396.97;7350633;19;20106;-67
2023/04/12 01:03:10;;;;;;;0.00;0.00;;;;;;;5.07;76.58;98399.44;7348891;19;20848;-68
2023/04/12 01:05:49;;;;;;;0.08;0.08;;;;;;;5.07;76.64;98386.50;7351510;19;20019;-67
2023/04/12 01:08:27;;;;;;;0.00;0.00;;;;;;;5.06;76.96;98380.47;7349451;19;20056;-68
2023/04/12 01:11:00;;;;;;;0.10;0.10;;;;;;;5.07;77.02;98387.38;7350253;19;20759;-68
2023/04/12 01:13:38;;;;;;;0.10;0.10;;;;;;;5.05;76.80;98391.75;7353153;19;20025;-68
2023/04/12 01:16:29;;;;;;;0.10;0.10;;;;;;;5.03;76.34;98359.09;7348623;19;20010;-68
2023/04/12 01:19:00;;;;;;;0.10;0.10;;;;;;;5.04;76.23;98366.78;7251903;19;2004489;-67
2023/04/12 01:21:44;;;;;;;0.00;0.00;;;;;;;5.04;75.87;98364.19;7351683;19;20014;-68
2023/04/12 01:24:31;;;;;;;0.10;0.10;;;;;;;5.01;75.79;98366.03;7353489;19;20022;-67
2023/04/12 01:26:59;;;;;;;0.00;0.00;;;;;;;4.97;76.02;98359.28;7354088;19;20010;-67
2023/04/12 01:29:28;;;;;;;0.00;0.00;;;;;;;4.95;75.86;98354.19;7347160;19;20025;-67
2023/04/12 01:31:59;;;;;;;0.10;0.10;;;;;;;4.91;76.00;98361.22;7356084;19;20613;-68
2023/04/12 01:34:27;;;;;;;0.10;0.10;;;;;;;4.91;75.85;98355.19;7351787;19;20003;-67
2023/04/12 01:36:55;;;;;;;0.10;0.10;;;;;;;4.87;75.97;98349.31;7351082;19;20014;-67
2023/04/12 01:39:21;;;;;;;0.00;0.00;;;;;;;4.69;75.58;98326.72;7353558;19;20134;-68
2023/04/12 01:41:47;;;;;;;0.00;0.00;;;;;;;4.81;75.53;98349.53;7351710;19;20375;-67
2023/04/12 01:44:17;;;;;;;0.08;0.08;;;;;;;4.80;75.87;98357.34;7354304;19;20051;-67
2023/04/12 01:46:45;;;;;;;0.00;0.00;;;;;;;4.77;75.75;98337.63;7357281;19;20505;-67
2023/04/12 01:49:11;;;;;;;0.10;0.10;;;;;;;4.76;75.68;98348.84;7348023;19;20010;-67
2023/04/12 01:52:07;;;;;;;0.00;0.00;;;;;;;4.77;75.79;98332.47;7353129;19;20671;-67
2023/04/12 01:54:37;;;;;;;0.10;0.10;;;;;;;4.74;75.43;98337.72;7248907;19;2005408;-67
2023/04/12 01:57:07;;;;;;;0.10;0.10;;;;;;;4.64;75.58;98321.72;7353954;19;20447;-68
2023/04/12 01:59:39;;;;;;;0.10;0.10;;;;;;;4.71;75.57;98322.31;7339269;19;20045;-67
2023/04/12 02:02:06;;;;;;;0.10;0.10;;;;;;;4.68;75.43;98322.47;7344908;19;20017;-67
2023/04/12 02:04:34;;;;;;;0.10;0.10;;;;;;;4.64;75.89;98313.13;7348728;19;20014;-67
2023/04/12 02:07:00;;;;;;;0.10;0.10;;;;;;;4.65;75.65;98327.72;7355709;19;20753;-67
2023/04/12 02:09:26;;;;;;;0.05;0.05;;;;;;;4.65;75.89;98309.63;7357463;19;20010;-67
2023/04/12 02:11:51;;;;;;;0.10;0.10;;;;;;;4.50;75.42;98294.69;7355828;19;20010;-67
2023/04/12 02:14:17;;;;;;;0.08;0.08;;;;;;;4.62;75.73;98287.34;7356722;19;20010;-67
2023/04/12 02:16:44;;;;;;;0.10;0.10;;;;;;;4.60;75.48;98301.19;7351509;19;20018;-67
2023/04/12 02:19:10;;;;;;;0.05;0.05;;;;;;;4.60;75.76;98288.28;7356151;19;20019;-66
2023/04/12 02:21:42;;;;;;;0.10;0.10;;;;;;;4.60;75.92;98272.78;7355968;19;20333;-67
2023/04/12 02:24:10;;;;;;;0.00;0.00;;;;;;;4.61;75.88;98269.28;7357692;19;20010;-67
2023/04/12 02:26:36;;;;;;;0.10;0.10;;;;;;;4.59;75.87;98269.34;7355961;19;20014;-67
2023/04/12 02:29:02;;;;;;;0.08;0.08;;;;;;;4.57;75.82;98267.75;7353231;19;20483;-67
2023/04/12 02:31:29;;;;;;;0.00;0.00;;;;;;;4.56;75.93;98250.53;7357527;19;20021;-67
2023/04/12 02:33:55;;;;;;;0.10;0.10;;;;;;;4.55;75.58;98244.50;7351432;19;20030;-67
2023/04/12 02:36:21;;;;;;;0.03;0.03;;;;;;;4.55;75.81;98243.66;7344816;19;20706;-68
2023/04/12 02:38:49;;;;;;;0.00;0.00;;;;;;;4.54;75.46;98242.00;7357318;19;20026;-67
2023/04/12 02:41:19;;;;;;;0.00;0.00;;;;;;;4.55;75.74;98230.75;7355480;19;20355;-67
2023/04/12 02:43:45;;;;;;;0.10;0.10;;;;;;;4.53;75.27;98222.22;7353454;19;20042;-67
2023/04/12 02:46:15;;;;;;;0.03;0.03;;;;;;;4.47;75.56;98225.03;7357552;19;20624;-67
2023/04/12 02:48:40;;;;;;;0.10;0.10;;;;;;;4.47;75.15;98219.88;7350018;19;20031;-67
2023/04/12 02:51:06;;;;;;;0.10;0.10;;;;;;;4.47;75.01;98219.88;7352755;19;20010;-68
2023/04/12 02:53:31;;;;;;;0.00;0.00;;;;;;;4.45;75.50;98216.50;7354404;19;20014;-67
2023/04/12 02:56:00;;;;;;;0.00;0.00;;;;;;;4.43;75.15;98214.81;7356416;19;20015;-67
2023/04/12 02:58:26;;;;;;;0.00;0.00;;;;;;;4.32;75.68;98196.28;7356199;19;20093;-67
2023/04/12 03:00:51;;;;;;;0.10;0.10;;;;;;;4.30;75.17;98186.91;7348361;19;20771;-67
2023/04/12 03:03:17;;;;;;;0.10;0.10;;;;;;;4.38;75.62;98203.81;7329264;19;20033;-67
2023/04/12 03:05:46;;;;;;;0.03;0.03;;;;;;;4.10;75.36;98146.31;7358693;19;20020;-68
2023/04/12 03:08:14;;;;;;;0.08;0.08;;;;;;;4.32;75.32;98173.03;7354349;19;20014;-67
2023/04/12 03:10:39;;;;;;;0.10;0.10;;;;;;;4.33;75.11;98171.31;7356359;19;20470;-67
2023/04/12 03:13:05;;;;;;;0.10;0.10;;;;;;;4.31;75.47;98163.63;7351241;19;20018;-67
2023/04/12 03:15:30;;;;;;;0.10;0.10;;;;;;;4.30;75.24;98166.25;7354892;19;20018;-67
2023/04/12 03:17:56;;;;;;;0.10;0.10;;;;;;;4.30;75.53;98174.81;7354984;19;20010;-67
2023/04/12 03:20:23;;;;;;;0.10;0.10;;;;;;;4.30;75.27;98168.81;7339455;19;20021;-67
2023/04/12 03:22:49;;;;;;;0.10;0.10;;;;;;;4.29;75.62;98165.41;7354790;19;20127;-67
2023/04/12 03:25:16;;;;;;;0.00;0.00;;;;;;;4.27;75.41;98167.22;7355797;19;20936;-67
2023/04/12 03:27:42;;;;;;;0.10;0.10;;;;;;;4.26;75.54;98162.94;7351381;19;20670;-67
2023/04/12 03:30:12;;;;;;;0.10;0.10;;;;;;;4.28;75.42;98157.72;7347305;19;20031;-67
2023/04/12 03:32:41;;;;;;;0.10;0.10;;;;;;;4.27;75.33;98162.03;7354744;19;20036;-67
2023/04/12 03:35:08;;;;;;;0.10;0.10;;;;;;;4.25;75.67;98163.81;7353593;19;20010;-67
2023/04/12 03:37:34;;;;;;;0.10;0.10;;;;;;;4.24;75.65;98156.97;7359101;19;20018;-67
2023/04/12 03:40:00;;;;;;;0.10;0.10;;;;;;;4.24;75.78;98161.31;7358128;19;20007;-67
2023/04/12 03:42:26;;;;;;;0.00;0.00;;;;;;;4.23;75.93;98155.31;7356111;19;20108;-67
2023/04/12 03:44:52;;;;;;;0.00;0.00;;;;;;;4.23;75.89;98137.22;7355398;19;20463;-67
2023/04/12 03:47:19;;;;;;;0.00;0.00;;;;;;;4.06;75.60;98117.22;7356948;19;20055;-67
2023/04/12 03:49:46;;;;;;;0.10;0.10;;;;;;;4.24;75.54;98125.16;7356394;19;20089;-67
2023/04/12 03:52:12;;;;;;;0.00;0.00;;;;;;;4.27;75.66;98104.38;7355463;19;20109;-65
2023/04/12 03:54:38;;;;;;;0.10;0.10;;;;;;;4.26;75.94;98100.97;7349540;19;20518;-67
2023/04/12 03:57:03;;;;;;;0.10;0.10;;;;;;;4.27;75.85;98089.72;7356348;19;20029;-64
2023/04/12 03:59:28;;;;;;;0.10;0.10;;;;;;;4.20;75.49;98067.59;7358125;19;20031;-67
2023/04/12 04:01:58;;;;;;;0.00;0.00;;;;;;;4.16;75.53;98066.06;7347489;19;20353;-67
2023/04/12 04:04:24;;;;;;;0.10;0.10;;;;;;;4.07;75.89;98033.66;7350418;19;20742;-67
2023/04/12 04:06:50;;;;;;;0.00;0.00;;;;;;;4.26;75.44;98059.63;7355631;19;20014;-67
2023/04/12 04:09:16;;;;;;;0.00;0.00;;;;;;;4.26;75.67;98054.47;7354452;19;20015;-67
2023/04/12 04:11:41;;;;;;;0.10;0.10;;;;;;;4.26;75.77;98053.59;7357473;19;20030;-67
2023/04/12 04:14:07;;;;;;;0.10;0.10;;;;;;;4.29;75.80;98056.06;7354668;19;20511;-66
2023/04/12 04:16:34;;;;;;;0.10;0.10;;;;;;;4.29;75.72;98041.41;7356302;19;20573;-67
2023/04/12 04:19:00;;;;;;;0.10;0.10;;;;;;;4.06;75.90;98002.75;7342365;19;20707;-67
2023/04/12 04:21:29;;;;;;;0.05;0.05;;;;;;;4.29;75.55;98030.22;7355374;19;20121;-67
2023/04/12 04:23:57;;;;;;;0.00;0.00;;;;;;;4.23;75.59;98021.00;7355635;19;20022;-67
2023/04/12 04:26:32;;;;;;;;;;;;;;;4.32;75.84;98015.47;7355040;19;20018;-66
2023/04/12 04:29:04;;;;;;;0.10;0.10;;;;;;;3.86;75.51;97919.19;7347146;19;20700;-67
2023/04/12 04:31:33;;;;;;;0.03;0.03;;;;;;;4.21;75.83;97971.16;7355074;19;20014;-67
2023/04/12 04:34:00;;;;;;;0.00;0.00;;;;;;;4.33;75.67;98001.63;7355412;19;20505;-66
2023/04/12 04:36:25;;;;;;;0.00;0.00;;;;;;;4.23;76.04;97951.25;7353240;19;20030;-67
2023/04/12 04:38:51;;;;;;;0.10;0.10;;;;;;;4.33;75.69;97955.13;7354657;19;20007;-67
2023/04/12 04:41:21;;;;;;;0.10;0.10;;;;;;;4.31;76.03;97946.63;7356586;19;20014;-67
2023/04/12 04:43:47;;;;;;;0.00;0.00;;;;;;;4.36;75.61;97947.28;7356428;19;20520;-67
2023/04/12 04:46:13;;;;;;;0.00;0.00;;;;;;;4.25;75.53;97913.28;7354630;19;20377;-67
2023/04/12 04:48:40;;;;;;;0.00;0.00;;;;;;;4.39;76.04;97929.03;7356527;19;20035;-67
2023/04/12 04:51:05;;;;;;;0.10;0.10;;;;;;;4.30;75.85;97892.41;7353382;19;20015;-67
2023/04/12 04:53:31;;;;;;;0.10;0.10;;;;;;;4.40;75.77;97899.69;7352667;19;20039;-67
2023/04/12 04:55:58;;;;;;;0.10;0.10;;;;;;;4.45;75.81;97885.75;7355672;19;20081;-66
2023/04/12 04:58:24;;;;;;;0.10;0.10;;;;;;;4.47;76.02;97883.97;7356759;19;20566;-67
2023/04/12 05:00:49;;;;;;;0.10;0.10;;;;;;;4.37;75.61;97849.94;7352835;19;20006;-67
2023/04/12 05:03:15;;;;;;;0.00;0.00;;;;;;;4.38;75.34;97855.03;7354416;19;20011;-67
2023/04/12 05:05:40;;;;;;;0.10;0.10;;;;;;;4.51;75.71;97864.81;7353175;19;20006;-67
2023/04/12 05:08:06;;;;;;;0.10;0.10;;;;;;;4.57;75.88;97867.16;7357101;19;20033;-67
2023/04/12 05:10:31;;;;;;;0.10;0.10;;;;;;;4.58;75.95;97861.06;7344144;19;20020;-66
2023/04/12 05:12:57;;;;;;;0.00;0.00;;;;;;;4.60;75.46;97854.06;7352254;19;20655;-67
2023/04/12 05:15:22;;;;;;;0.10;0.10;;;;;;;4.62;75.61;97841.94;7354176;19;20007;-66
2023/04/12 05:17:48;;;;;;;0.10;0.10;;;;;;;4.63;75.62;97838.44;7354223;19;20573;-67
2023/04/12 05:20:13;;;;;;;0.10;0.10;;;;;;;4.53;76.01;97806.16;7355380;19;20037;-66
2023/04/12 05:22:38;;;;;;;0.00;0.00;;;;;;;4.69;75.80;97827.81;7352759;19;20014;-67
2023/04/12 05:25:05;;;;;;;0.10;0.10;;;;;;;4.70;75.89;97811.41;7356786;19;25368;-67
2023/04/12 05:27:30;;;;;;;0.10;0.10;;;;;;;4.66;75.55;97784.00;7351521;19;20007;-67
2023/04/12 05:29:56;;;;;;;0.10;0.10;;;;;;;4.52;75.48;97753.66;7355469;19;20687;-67
2023/04/12 05:32:23;;;;;;;0.00;0.00;;;;;;;4.75;75.73;97783.59;7354886;19;20027;-67
2023/04/12 05:34:49;;;;;;;0.00;0.00;;;;;;;4.78;75.73;97780.88;7349861;19;20026;-67
2023/04/12 05:37:14;;;;;;;0.10;0.10;;;;;;;4.70;75.45;97767.47;7354743;19;20739;-66
2023/04/12 05:39:39;;;;;;;0.10;0.10;;;;;;;4.79;75.58;97766.22;7351532;19;20011;-66
2023/04/12 05:42:05;;;;;;;0.00;0.00;;;;;;;4.82;75.59;97761.75;7358659;19;20097;-67
2023/04/12 05:44:31;;;;;;;0.10;0.10;;;;;;;4.81;75.37;97749.69;7356745;19;20038;-67
2023/04/12 05:46:56;;;;;;;0.10;0.10;;;;;;;4.85;75.57;97751.25;7357611;19;20022;-67
2023/04/12 05:49:21;;;;;;;0.00;0.00;;;;;;;4.80;75.54;97731.69;7361896;19;25268;-67
2023/04/12 05:51:47;;;;;;;0.00;0.00;;;;;;;4.90;75.63;97732.94;7353399;19;20107;-67
2023/04/12 05:54:12;;;;;;;0.00;0.00;;;;;;;4.92;76.09;97716.44;7359493;19;20006;-67
2023/04/12 05:56:38;;;;;;;0.00;0.00;;;;;;;5.02;75.87;97715.97;7359383;19;20332;-67
2023/04/12 05:59:04;;;;;;;0.03;0.03;;;;;;;5.06;76.09;97709.75;7347934;19;20013;-67
2023/04/12 06:01:31;;;;;;;0.00;0.00;;;;;;;5.02;75.83;97679.78;7354073;19;20022;-61
2023/04/12 06:03:57;;;;;;;;;;;;;;;5.22;76.64;97682.25;7355884;19;20011;-61
2023/04/12 06:06:23;;;;;;;0.10;0.10;;;;;;;5.26;75.80;97673.41;7356442;19;19925;-61
2023/04/12 06:08:48;;;;;;;0.00;0.00;;;;;;;5.16;75.57;97633.38;7359337;19;20050;-61
2023/04/12 06:11:15;;;;;;;0.00;0.00;;;;;;;5.34;74.99;97645.41;7357166;19;20044;-61
2023/04/12 06:13:40;;;;;;;0.10;0.10;;;;;;;5.36;75.29;97629.81;7355330;19;21725;-61
2023/04/12 06:16:06;;;;;;;0.00;0.00;;;;;;;5.43;74.91;97623.41;7356130;19;20077;-61
2023/04/12 06:18:32;;;;;;;0.05;0.05;;;;;;;5.47;74.76;97618.00;7354571;19;20086;-62
2023/04/12 06:20:57;;;;;;;0.10;0.10;;;;;;;5.51;74.58;97615.25;7344725;19;20025;-61
2023/04/12 06:23:23;;;;;;;0.10;0.10;;;;;;;5.54;74.02;97609.91;7355872;19;20010;-62
2023/04/12 06:25:49;;;;;;;0.10;0.10;;;;;;;5.56;73.75;97602.91;7355429;19;20062;-61
2023/04/12 06:28:15;;;;;;;0.10;0.10;;;;;;;5.46;73.74;97590.44;7355722;19;20035;-61
2023/04/12 06:30:42;;;;;;;0.05;0.05;;;;;;;5.59;73.68;97598.41;7356356;19;20111;-61
2023/04/12 06:33:07;;;;;;;0.05;0.05;;;;;;;5.60;73.15;97599.25;7356508;19;20094;-62
2023/04/12 06:35:32;;;;;;;0.10;0.10;;;;;;;5.60;73.56;97601.84;7354549;19;20014;-62
2023/04/12 06:37:58;;;;;;;0.10;0.10;;;;;;;5.61;73.36;97606.09;7352801;19;20074;-62
2023/04/12 06:40:23;;;;;;;0.00;0.00;;;;;;;5.63;73.69;97594.75;7352613;19;20017;-61
2023/04/12 06:42:49;;;;;;;0.00;0.00;;;;;;;5.62;73.36;97587.03;7356398;19;20090;-61
2023/04/12 06:45:14;;;;;;;0.10;0.10;;;;;;;5.66;74.00;97583.38;7346955;19;21046;-61
2023/04/12 06:47:40;;;;;;;0.10;0.10;;;;;;;5.69;73.91;97572.88;7354649;19;20011;-61
2023/04/12 06:50:06;;;;;;;0.00;0.00;;;;;;;5.73;73.76;97564.03;7352914;19;20082;-62
2023/04/12 06:52:31;;;;;;;0.00;0.00;;;;;;;5.77;73.93;97552.56;7355424;19;20010;-61
2023/04/12 06:54:57;;;;;;;0.10;0.10;;;;;;;5.81;74.37;97546.31;7356051;19;20090;-62
2023/04/12 06:57:22;;;;;;;0.10;0.10;;;;;;;5.85;75.03;97531.47;7355977;19;20018;-61
2023/04/12 06:59:48;;;;;;;0.10;0.10;;;;;;;5.93;75.02;97540.53;7353131;19;20022;-61
2023/04/12 07:02:14;;;;;;;0.10;0.10;;;;;;;5.98;74.90;97527.31;7347539;19;20017;-62
2023/04/12 07:04:40;;;;;;;0.10;0.10;;;;;;;6.01;75.42;97515.94;7354963;19;20026;-62
2023/04/12 07:07:05;;;;;;;0.10;0.10;;;;;;;6.08;75.46;97514.69;7357074;19;20018;-61
2023/04/12 07:09:31;;;;;;;0.10;0.10;;;;;;;5.76;75.33;97455.13;7330935;19;20540;-61
2023/04/12 07:11:57;;;;;;;0.00;0.00;;;;;;;6.10;75.39;97489.53;7349857;19;20147;-61
2023/04/12 07:14:23;;;;;;;0.10;0.10;;;;;;;6.14;75.08;97478.09;7349706;19;20010;-62
2023/04/12 07:16:48;;;;;;;0.00;0.00;;;;;;;6.14;74.56;97472.91;7342809;19;20017;-62
2023/04/12 07:19:13;;;;;;;0.10;0.10;;;;;;;6.09;74.97;97455.03;7350143;19;20014;-61
2023/04/12 07:21:39;;;;;;;0.10;0.10;;;;;;;6.19;75.07;97460.53;7348831;19;20011;-62
2023/04/12 07:24:05;;;;;;;0.00;0.00;;;;;;;6.20;74.91;97459.59;7342889;19;20031;-61
2023/04/12 07:26:30;;;;;;;0.00;0.00;;;;;;;6.22;75.11;97457.75;7327484;19;20022;-61
2023/04/12 07:28:56;;;;;;;0.10;0.10;;;;;;;6.27;74.58;97460.91;7349799;19;20007;-62
2023/04/12 07:31:22;;;;;;;0.00;0.00;;;;;;;6.29;74.37;97453.91;7352013;19;20002;-62
2023/04/12 07:33:48;;;;;;;0.10;0.10;;;;;;;6.32;74.48;97448.53;7352205;19;20021;-61
2023/04/12 07:36:15;;;;;;;0.10;0.10;;;;;;;6.36;73.94;97449.19;7351905;19;20010;-62
2023/04/12 07:38:41;;;;;;;0.00;0.00;;;;;;;6.40;73.95;97440.31;7351002;19;20041;-62
2023/04/12 07:41:06;;;;;;;0.00;0.00;;;;;;;6.44;73.89;97442.66;7351643;19;20621;-61
2023/04/12 07:43:32;;;;;;;0.10;0.10;;;;;;;6.48;74.24;97443.28;7350970;19;20022;-62
2023/04/12 07:45:57;;;;;;;0.00;0.00;;;;;;;6.38;74.06;97414.47;7351517;19;20014;-62
2023/04/12 08:02:04;;;;;;;0.00;0.00;;;;;;;6.74;74.08;97406.31;7354384;19;20550;-61
2023/04/12 08:04:30;;;;;;;0.10;0.10;;;;;;;6.66;73.77;97389.53;7344117;19;20031;-61
2023/04/12 08:06:55;;;;;;;0.10;0.10;;;;;;;6.76;74.26;97390.66;7346100;19;20018;-61
2023/04/12 08:09:22;;;;;;;0.10;0.10;;;;;;;6.80;73.99;97399.91;7351078;19;21026;-63
2023/04/12 08:11:47;;;;;;;0.10;0.10;;;;;;;6.84;73.97;97393.59;7349599;19;20109;-61
2023/04/12 08:14:13;;;;;;;0.10;0.10;;;;;;;6.91;74.68;97389.72;7351067;19;20121;-62
2023/04/12 08:16:38;;;;;;;0.10;0.10;;;;;;;6.98;74.76;97375.44;7354499;19;20018;-62
2023/04/12 08:19:04;;;;;;;0.05;0.05;;;;;;;7.06;74.64;97362.00;7346368;19;20014;-62
2023/04/12 08:21:29;;;;;;;0.10;0.10;;;;;;;7.14;74.66;97358.94;7350967;19;20050;-61
2023/04/12 08:23:55;;;;;;;0.10;0.10;;;;;;;7.20;74.74;97364.59;7349214;19;20494;-62
2023/04/12 08:26:21;;;;;;;0.10;0.10;;;;;;;7.31;74.68;97374.28;7335105;19;20936;-63
2023/04/12 08:28:47;;;;;;;0.00;0.00;;;;;;;7.38;74.23;97378.16;7346701;19;20106;-62
2023/04/12 08:31:15;;;;;;;0.00;0.00;;;;;;;7.41;74.09;97375.38;7345543;19;20805;-63
2023/04/12 08:33:41;;;;;;;0.00;0.00;;;;;;;7.52;74.33;97379.88;7341793;19;20040;-63
2023/04/12 08:36:07;;;;;;;0.00;0.00;;;;;;;7.64;74.65;97391.25;7343911;19;20010;-61
2023/04/12 08:38:32;;;;;;;0.00;0.00;;;;;;;7.71;74.14;97395.97;7346760;19;20094;-61
2023/04/12 08:40:58;;;;;;;0.03;0.03;;;;;;;7.65;74.44;97375.56;7338953;19;20453;-62
2023/04/12 08:43:28;;;;;;;0.10;0.10;;;;;;;7.94;74.53;97396.25;7334972;19;20039;-63
2023/04/12 08:45:55;;;;;;;0.10;0.10;;;;;;;8.03;74.56;97390.44;7341559;19;20796;-62
2023/04/12 08:48:21;;;;;;;0.00;0.00;;;;;;;8.22;74.75;97410.88;7348088;19;20011;-62
2023/04/12 08:50:48;;;;;;;0.03;0.03;;;;;;;8.28;74.22;97395.69;7337796;19;20376;-63
2023/04/12 08:53:13;;;;;;;0.00;0.00;;;;;;;8.38;73.87;97403.75;7324872;19;20074;-62
2023/04/12 08:55:42;;;;;;;0.10;0.10;;;;;;;8.48;73.35;97412.59;7344639;19;20226;-61
2023/04/12 08:58:08;;;;;;;0.00;0.00;;;;;;;8.50;73.14;97410.72;7341337;19;20018;-63
2023/04/12 09:00:36;;;;;;;0.00;0.00;;;;;;;8.51;73.21;97401.97;7342055;19;20094;-61
2023/04/12 09:03:01;;;;;;;0.00;0.00;;;;;;;8.37;73.33;97389.09;7343322;19;20006;-62
2023/04/12 09:05:30;;;;;;;0.03;0.03;;;;;;;8.67;73.76;97417.41;7344897;19;20046;-62
2023/04/12 09:07:56;;;;;;;0.00;0.00;;;;;;;8.78;73.60;97429.69;7346435;19;20006;-64
2023/04/12 09:10:32;;;;;;;0.10;0.10;;;;;;;8.99;74.20;97412.63;7342033;19;20089;-63
2023/04/12 09:12:58;;;;;;;0.10;0.10;;;;;;;9.07;73.36;97415.53;7340884;19;20014;-62
2023/04/12 09:15:24;;;;;;;0.00;0.00;;;;;;;9.18;73.57;97411.34;7348200;19;20018;-63
2023/04/12 09:18:02;;;;;;;0.00;0.00;;;;;;;9.39;74.22;97409.00;7351801;19;20384;-63
2023/04/12 09:20:27;;;;;;;0.00;0.00;;;;;;;9.56;74.09;97411.25;7357332;19;20376;-61
2023/04/12 09:22:54;;;;;;;0.00;0.00;;;;;;;9.78;72.92;97426.16;7358418;19;20010;-62
2023/04/12 09:25:44;;;;;;;0.10;0.10;;;;;;;9.98;73.35;97432.53;7348848;19;20585;-61
2023/04/12 09:28:26;;;;;;;0.05;0.05;;;;;;;10.04;72.92;97438.16;7353377;19;20018;-63
2023/04/12 09:30:53;;;;;;;0.10;0.10;;;;;;;10.09;72.42;97443.88;7358067;19;20038;-63
2023/04/12 09:33:21;;;;;;;0.10;0.10;;;;;;;10.24;72.19;97444.56;7353966;19;20133;-63
2023/04/12 09:35:47;;;;;;;0.10;0.10;;;;;;;10.33;72.21;97443.03;7356419;19;20014;-64
2023/04/12 09:38:13;;;;;;;0.10;0.10;;;;;;;10.43;71.94;97445.81;7359077;19;20799;-63
2023/04/12 09:40:39;;;;;;;0.10;0.10;;;;;;;10.36;71.00;97433.22;7355696;19;20007;-63
2023/04/12 09:43:05;;;;;;;0.10;0.10;;;;;;;10.39;71.43;97437.38;7359168;19;20015;-63
2023/04/12 09:45:34;;;;;;;0.00;0.00;;;;;;;10.49;71.46;97451.41;7354678;19;20947;-63
2023/04/12 09:47:59;;;;;;;0.00;0.00;;;;;;;10.54;71.69;97472.78;7354258;19;20015;-63
2023/04/12 09:50:31;;;;;;;0.10;0.10;;;;;;;10.53;71.10;97468.47;7346875;19;20038;-61
2023/04/12 09:52:58;;;;;;;0.00;0.00;;;;;;;10.50;71.32;97471.34;7356419;19;20018;-63
2023/04/12 09:55:29;;;;;;;0.08;0.08;;;;;;;10.52;71.55;97472.03;7351593;19;20118;-65
2023/04/12 09:57:55;;;;;;;0.00;0.00;;;;;;;10.56;71.00;97470.88;7357824;19;20026;-65
2023/04/12 10:00:24;;;;;;;0.08;0.08;;;;;;;10.68;71.73;97494.38;7356953;19;20007;-65
2023/04/12 10:02:51;;;;;;;0.10;0.10;;;;;;;10.78;71.49;97484.94;7356388;19;20959;-63
2023/04/12 10:05:18;;;;;;;0.00;0.00;;;;;;;10.87;71.01;97484.25;7357288;19;20057;-63
2023/04/12 10:07:44;;;;;;;0.00;0.00;;;;;;;10.75;70.46;97462.50;7353416;19;20430;-61
2023/04/12 10:10:11;;;;;;;0.10;0.10;;;;;;;10.95;69.44;97483.66;7359666;19;20014;-61
2023/04/12 10:12:38;;;;;;;0.00;0.00;;;;;;;10.96;69.81;97483.56;7357236;19;20367;-63
2023/04/12 10:15:11;;;;;;;0.03;0.03;;;;;;;11.02;70.31;97488.31;7357495;19;20026;-64
2023/04/12 10:17:42;;;;;;;0.00;0.00;;;;;;;11.10;70.47;97488.56;7355398;19;20014;-62
2023/04/12 10:20:09;;;;;;;0.00;0.00;;;;;;;11.09;69.89;97493.88;7355858;19;20006;-65
2023/04/12 10:22:35;;;;;;;0.10;0.10;;;;;;;11.07;69.00;97495.78;7357246;19;20117;-65
2023/04/12 10:25:01;;;;;;;0.10;0.10;;;;;;;11.14;69.25;97504.81;7356639;19;20443;-63
2023/04/12 10:27:26;;;;;;;0.10;0.10;;;;;;;11.22;70.35;97504.25;7354349;19;22155;-61
2023/04/12 10:29:52;;;;;;;0.10;0.10;;;;;;;11.35;70.68;97512.78;7347783;19;20010;-60
2023/04/12 10:32:24;;;;;;;0.03;0.03;;;;;;;11.51;70.10;97510.69;7350273;19;20007;-63
2023/04/12 10:34:57;;;;;;;0.00;0.00;;;;;;;11.57;69.92;97510.19;7351644;19;20651;-64
2023/04/12 10:38:01;;;;;;;0.10;0.10;;;;;;;11.80;71.77;97525.84;7353284;19;20010;-62
2023/04/12 10:40:31;;;;;;;0.10;0.10;;;;;;;11.85;71.44;97539.44;7247742;19;2004439;-62
2023/04/12 10:43:21;;;;;;;0.00;0.00;;;;;;;11.91;70.66;97538.94;7352414;19;20884;-61
2023/04/12 10:45:48;;;;;;;0.05;0.05;;;;;;;11.93;69.32;97545.72;7355263;19;20319;-63
2023/04/12 10:48:49;;;;;;;0.00;0.00;;;;;;;12.06;70.54;97553.41;7355844;19;20023;-63
2023/04/12 10:51:27;;;;;;;0.00;0.00;;;;;;;12.09;69.24;97571.50;7251155;19;2004596;-62
2023/04/12 10:54:16;;;;;;;0.00;0.00;;;;;;;12.12;69.97;97563.44;7354547;19;20121;-63
2023/04/12 10:56:43;;;;;;;0.10;0.10;;;;;;;12.07;66.97;97559.50;7355270;19;20026;-63
2023/04/12 10:59:13;;;;;;;0.00;0.00;;;;;;;12.08;68.56;97567.22;7354975;19;20046;-64
2023/04/12 11:01:39;;;;;;;0.10;0.10;;;;;;;12.04;67.76;97571.03;7354478;19;20461;-62
2023/04/12 11:04:20;;;;;;;0.10;0.10;;;;;;;12.13;70.75;97579.94;7350143;19;20963;-63
2023/04/12 11:06:52;;;;;;;0.10;0.10;;;;;;;12.13;69.23;97569.47;7356622;19;20627;-64
2023/04/12 11:09:25;;;;;;;0.00;0.00;;;;;;;12.28;69.31;97581.34;7351887;19;20006;-62
2023/04/12 11:11:55;;;;;;;0.00;0.00;;;;;;;12.27;69.24;97563.16;7356036;19;20364;-62
2023/04/12 11:14:28;;;;;;;0.10;0.10;;;;;;;12.52;69.11;97596.88;7354566;19;20771;-61
2023/04/12 11:17:17;;;;;;;0.00;0.00;;;;;;;12.65;70.78;97597.53;7355330;19;20478;-65
2023/04/12 11:19:58;;;;;;;0.10;0.10;;;;;;;12.70;68.75;97602.41;7355738;19;20011;-63
2023/04/12 11:22:27;;;;;;;0.00;0.00;;;;;;;12.78;67.40;97622.75;7355133;19;20035;-62
2023/04/12 11:24:58;;;;;;;0.00;0.00;;;;;;;12.85;67.79;97614.25;7352115;19;20678;-63
2023/04/12 11:27:25;;;;;;;0.10;0.10;;;;;;;12.94;66.47;97623.16;7350847;19;20021;-62
2023/04/12 11:29:54;;;;;;;0.00;0.00;;;;;;;13.03;66.09;97626.81;7352441;19;20014;-62
2023/04/12 11:32:21;;;;;;;0.10;0.10;;;;;;;13.10;69.09;97634.03;7356001;19;20037;-62
2023/04/12 11:34:46;;;;;;;0.10;0.10;;;;;;;13.06;66.50;97627.38;7353658;19;20023;-63
2023/04/12 11:37:12;;;;;;;0.10;0.10;;;;;;;13.20;67.27;97642.81;7352312;19;20022;-60
2023/04/12 11:39:43;;;;;;;0.10;0.10;;;;;;;13.14;65.75;97630.22;7354294;19;20046;-62
2023/04/12 11:42:18;;;;;;;0.08;0.08;;;;;;;13.29;67.14;97649.13;7354626;19;20018;-63
2023/04/12 11:44:45;;;;;;;0.10;0.10;;;;;;;13.12;65.08;97629.50;7353192;19;20028;-64
2023/04/12 11:47:18;;;;;;;0.08;0.08;;;;;;;13.18;67.81;97642.13;7349990;19;20090;-60
2023/04/12 11:49:49;;;;;;;0.10;0.10;;;;;;;13.28;66.43;97657.09;7351508;19;20635;-63
2023/04/12 11:52:16;;;;;;;0.10;0.10;;;;;;;13.19;65.13;97661.28;7353571;19;20094;-60
2023/04/12 11:54:44;;;;;;;0.10;0.10;;;;;;;13.15;65.98;97657.25;7355981;19;20022;-60
2023/04/12 11:57:14;;;;;;;0.10;0.10;;;;;;;13.13;67.70;97665.25;7353009;19;20014;-61